sensor_id;sensor_type;location;lat;lon;timestamp;P1;durP1;ratioP1;P2;durP2;ratioP2
3815;SDS011;1923;48.154;11.536;2022-09-27T00:01:11;1.43;;;1.33;;
3815;SDS011;1923;48.154;11.536;2022-09-27T00:03:40;2.33;;;1.30;;
3815;SDS011;1923;48.154;11.536;2022-09-27T00:06:11;1.97;;;1.13;;
3815;SDS011;1923;48.154;11.536;2022-09-27T00:08:41;3.47;;;1.67;;
3815;SDS011;1923;48.154;11.536;2022-09-27T00:11:10;1.10;;;0.90;;
3815;SDS011;1923;48.154;11.536;2022-09-27T00:13:45;2.13;;;1.47;;
3815;SDS011;1923;48.154;11.536;2022-09-27T00:16:13;1.23;;;1.13;;
3815;SDS011;1923;48.154;11.536;2022-09-27T00:18:41;2.50;;;1.23;;
3815;SDS011;1923;48.154;11.536;2022-09-27T00:21:11;1.90;;;1.47;;
3815;SDS011;1923;48.154;11.536;2022-09-27T00:23:39;2.20;;;1.07;;
3815;SDS011;1923;48.154;11.536;2022-09-27T00:26:09;1.60;;;1.00;;
3815;SDS011;1923;48.154;11.536;2022-09-27T00:28:39;1.83;;;1.50;;
3815;SDS011;1923;48.154;11.536;2022-09-27T00:31:15;1.50;;;1.30;;
3815;SDS011;1923;48.154;11.536;2022-09-27T00:33:46;1.70;;;1.10;;
3815;SDS011;1923;48.154;11.536;2022-09-27T00:36:15;1.80;;;1.30;;
3815;SDS011;1923;48.154;11.536;2022-09-27T00:38:43;2.17;;;1.30;;
3815;SDS011;1923;48.154;11.536;2022-09-27T00:41:12;2.00;;;1.47;;
3815;SDS011;1923;48.154;11.536;2022-09-27T00:43:44;1.50;;;1.23;;
3815;SDS011;1923;48.154;11.536;2022-09-27T00:46:18;2.77;;;1.97;;
3815;SDS011;1923;48.154;11.536;2022-09-27T00:48:55;2.67;;;1.50;;
3815;SDS011;1923;48.154;11.536;2022-09-27T00:51:28;2.80;;;2.00;;
3815;SDS011;1923;48.154;11.536;2022-09-27T00:53:58;2.23;;;1.40;;
3815;SDS011;1923;48.154;11.536;2022-09-27T00:56:28;1.97;;;1.53;;
3815;SDS011;1923;48.154;11.536;2022-09-27T00:59:02;2.17;;;1.43;;
3815;SDS011;1923;48.154;11.536;2022-09-27T01:01:38;1.70;;;1.60;;
3815;SDS011;1923;48.154;11.536;2022-09-27T01:04:08;2.10;;;1.13;;
3815;SDS011;1923;48.154;11.536;2022-09-27T01:06:37;2.40;;;1.60;;
3815;SDS011;1923;48.154;11.536;2022-09-27T01:09:05;2.70;;;1.70;;
3815;SDS011;1923;48.154;11.536;2022-09-27T01:11:38;3.27;;;1.77;;
3815;SDS011;1923;48.154;11.536;2022-09-27T01:14:21;2.77;;;1.77;;
3815;SDS011;1923;48.154;11.536;2022-09-27T01:17:01;3.67;;;1.90;;
3815;SDS011;1923;48.154;11.536;2022-09-27T01:19:45;2.87;;;2.10;;
3815;SDS011;1923;48.154;11.536;2022-09-27T01:22:33;2.30;;;1.67;;
3815;SDS011;1923;48.154;11.536;2022-09-27T01:25:12;1.67;;;1.50;;
3815;SDS011;1923;48.154;11.536;2022-09-27T01:30:49;2.20;;;1.60;;
3815;SDS011;1923;48.154;11.536;2022-09-27T01:33:29;3.27;;;2.03;;
3815;SDS011;1923;48.154;11.536;2022-09-27T01:36:06;2.43;;;1.50;;
3815;SDS011;1923;48.154;11.536;2022-09-27T01:38:44;1.90;;;1.70;;
3815;SDS011;1923;48.154;11.536;2022-09-27T01:41:25;2.03;;;1.70;;
3815;SDS011;1923;48.154;11.536;2022-09-27T01:43:59;2.80;;;1.90;;
3815;SDS011;1923;48.154;11.536;2022-09-27T01:46:34;3.30;;;1.80;;
3815;SDS011;1923;48.154;11.536;2022-09-27T01:49:07;2.83;;;1.50;;
3815;SDS011;1923;48.154;11.536;2022-09-27T01:51:40;1.77;;;1.60;;
3815;SDS011;1923;48.154;11.536;2022-09-27T01:54:12;5.03;;;1.70;;
3815;SDS011;1923;48.154;11.536;2022-09-27T01:56:45;2.03;;;1.73;;
3815;SDS011;1923;48.154;11.536;2022-09-27T01:59:18;3.47;;;2.17;;
3815;SDS011;1923;48.154;11.536;2022-09-27T02:01:52;3.50;;;1.80;;
3815;SDS011;1923;48.154;11.536;2022-09-27T02:04:26;3.63;;;2.30;;
3815;SDS011;1923;48.154;11.536;2022-09-27T02:07:00;4.30;;;2.23;;
3815;SDS011;1923;48.154;11.536;2022-09-27T02:09:32;3.17;;;2.27;;
3815;SDS011;1923;48.154;11.536;2022-09-27T02:12:05;2.77;;;1.83;;
3815;SDS011;1923;48.154;11.536;2022-09-27T02:14:37;3.27;;;1.97;;
3815;SDS011;1923;48.154;11.536;2022-09-27T02:17:11;2.67;;;2.00;;
3815;SDS011;1923;48.154;11.536;2022-09-27T02:19:51;3.00;;;2.23;;
3815;SDS011;1923;48.154;11.536;2022-09-27T02:22:24;2.63;;;2.00;;
3815;SDS011;1923;48.154;11.536;2022-09-27T02:24:59;3.93;;;2.13;;
3815;SDS011;1923;48.154;11.536;2022-09-27T02:27:35;2.33;;;2.00;;
3815;SDS011;1923;48.154;11.536;2022-09-27T02:30:09;2.37;;;1.83;;
3815;SDS011;1923;48.154;11.536;2022-09-27T02:32:40;3.47;;;2.17;;
3815;SDS011;1923;48.154;11.536;2022-09-27T02:35:10;4.50;;;2.17;;
3815;SDS011;1923;48.154;11.536;2022-09-27T02:37:43;2.67;;;1.83;;
3815;SDS011;1923;48.154;11.536;2022-09-27T02:40:11;2.90;;;1.87;;
3815;SDS011;1923;48.154;11.536;2022-09-27T02:42:40;2.60;;;2.00;;
3815;SDS011;1923;48.154;11.536;2022-09-27T02:45:10;2.90;;;2.10;;
3815;SDS011;1923;48.154;11.536;2022-09-27T02:47:45;2.53;;;1.80;;
3815;SDS011;1923;48.154;11.536;2022-09-27T02:50:30;2.17;;;1.90;;
3815;SDS011;1923;48.154;11.536;2022-09-27T02:53:21;2.47;;;1.80;;
3815;SDS011;1923;48.154;11.536;2022-09-27T02:56:00;2.40;;;1.83;;
3815;SDS011;1923;48.154;11.536;2022-09-27T02:58:41;6.70;;;2.47;;
3815;SDS011;1923;48.154;11.536;2022-09-27T03:01:19;3.90;;;2.07;;
3815;SDS011;1923;48.154;11.536;2022-09-27T03:03:57;1.83;;;1.73;;
3815;SDS011;1923;48.154;11.536;2022-09-27T03:06:31;3.03;;;1.80;;
3815;SDS011;1923;48.154;11.536;2022-09-27T03:09:00;3.10;;;1.80;;
3815;SDS011;1923;48.154;11.536;2022-09-27T03:11:28;4.80;;;1.67;;
3815;SDS011;1923;48.154;11.536;2022-09-27T03:13:58;3.23;;;2.17;;
3815;SDS011;1923;48.154;11.536;2022-09-27T03:16:34;3.00;;;2.40;;
3815;SDS011;1923;48.154;11.536;2022-09-27T03:19:04;2.80;;;2.17;;
3815;SDS011;1923;48.154;11.536;2022-09-27T03:21:32;3.30;;;2.13;;
3815;SDS011;1923;48.154;11.536;2022-09-27T03:24:00;2.97;;;2.37;;
3815;SDS011;1923;48.154;11.536;2022-09-27T03:26:29;3.60;;;2.60;;
3815;SDS011;1923;48.154;11.536;2022-09-27T03:28:57;3.33;;;2.43;;
3815;SDS011;1923;48.154;11.536;2022-09-27T03:31:25;2.93;;;1.90;;
3815;SDS011;1923;48.154;11.536;2022-09-27T03:33:53;3.13;;;2.33;;
3815;SDS011;1923;48.154;11.536;2022-09-27T03:36:22;4.00;;;2.30;;
3815;SDS011;1923;48.154;11.536;2022-09-27T03:38:51;4.00;;;2.50;;
3815;SDS011;1923;48.154;11.536;2022-09-27T03:41:19;3.03;;;2.40;;
3815;SDS011;1923;48.154;11.536;2022-09-27T03:43:47;2.90;;;2.10;;
3815;SDS011;1923;48.154;11.536;2022-09-27T03:46:15;3.30;;;2.60;;
3815;SDS011;1923;48.154;11.536;2022-09-27T03:48:43;5.03;;;2.40;;
3815;SDS011;1923;48.154;11.536;2022-09-27T03:51:11;3.90;;;2.43;;
3815;SDS011;1923;48.154;11.536;2022-09-27T03:53:40;3.43;;;1.87;;
3815;SDS011;1923;48.154;11.536;2022-09-27T03:56:09;4.27;;;2.73;;
3815;SDS011;1923;48.154;11.536;2022-09-27T03:58:37;4.13;;;2.20;;
3815;SDS011;1923;48.154;11.536;2022-09-27T04:01:05;3.23;;;2.20;;
3815;SDS011;1923;48.154;11.536;2022-09-27T04:03:33;3.37;;;2.23;;
3815;SDS011;1923;48.154;11.536;2022-09-27T04:06:01;5.90;;;3.20;;
3815;SDS011;1923;48.154;11.536;2022-09-27T04:08:30;3.20;;;2.40;;
3815;SDS011;1923;48.154;11.536;2022-09-27T04:10:59;8.07;;;3.83;;
3815;SDS011;1923;48.154;11.536;2022-09-27T04:13:28;4.57;;;2.03;;
3815;SDS011;1923;48.154;11.536;2022-09-27T04:15:56;6.30;;;2.33;;
3815;SDS011;1923;48.154;11.536;2022-09-27T04:18:24;6.20;;;2.67;;
3815;SDS011;1923;48.154;11.536;2022-09-27T04:20:52;4.37;;;2.60;;
3815;SDS011;1923;48.154;11.536;2022-09-27T04:23:20;4.13;;;2.60;;
3815;SDS011;1923;48.154;11.536;2022-09-27T04:25:55;3.60;;;1.90;;
3815;SDS011;1923;48.154;11.536;2022-09-27T04:28:24;4.10;;;2.30;;
3815;SDS011;1923;48.154;11.536;2022-09-27T04:30:53;5.20;;;2.53;;
3815;SDS011;1923;48.154;11.536;2022-09-27T04:33:21;7.40;;;2.70;;
3815;SDS011;1923;48.154;11.536;2022-09-27T04:35:50;6.57;;;3.13;;
3815;SDS011;1923;48.154;11.536;2022-09-27T04:38:35;4.87;;;2.27;;
3815;SDS011;1923;48.154;11.536;2022-09-27T04:41:04;2.90;;;2.10;;
3815;SDS011;1923;48.154;11.536;2022-09-27T04:43:33;5.60;;;2.83;;
3815;SDS011;1923;48.154;11.536;2022-09-27T04:46:02;4.77;;;2.93;;
3815;SDS011;1923;48.154;11.536;2022-09-27T04:48:30;4.40;;;1.80;;
3815;SDS011;1923;48.154;11.536;2022-09-27T04:50:58;2.07;;;1.87;;
3815;SDS011;1923;48.154;11.536;2022-09-27T04:53:28;1.73;;;1.50;;
3815;SDS011;1923;48.154;11.536;2022-09-27T04:55:57;3.37;;;2.07;;
3815;SDS011;1923;48.154;11.536;2022-09-27T04:58:30;2.40;;;1.60;;
3815;SDS011;1923;48.154;11.536;2022-09-27T05:01:01;2.63;;;2.40;;
3815;SDS011;1923;48.154;11.536;2022-09-27T05:03:29;2.90;;;1.93;;
3815;SDS011;1923;48.154;11.536;2022-09-27T05:05:58;2.23;;;1.80;;
3815;SDS011;1923;48.154;11.536;2022-09-27T05:08:27;3.53;;;1.80;;
3815;SDS011;1923;48.154;11.536;2022-09-27T05:10:55;2.30;;;1.87;;
3815;SDS011;1923;48.154;11.536;2022-09-27T05:13:23;3.17;;;1.77;;
3815;SDS011;1923;48.154;11.536;2022-09-27T05:15:51;2.50;;;1.60;;
3815;SDS011;1923;48.154;11.536;2022-09-27T05:18:21;4.63;;;1.97;;
3815;SDS011;1923;48.154;11.536;2022-09-27T05:20:49;4.00;;;1.80;;
3815;SDS011;1923;48.154;11.536;2022-09-27T05:23:18;2.90;;;1.90;;
3815;SDS011;1923;48.154;11.536;2022-09-27T05:25:46;2.30;;;1.60;;
3815;SDS011;1923;48.154;11.536;2022-09-27T05:28:14;2.50;;;1.63;;
3815;SDS011;1923;48.154;11.536;2022-09-27T05:30:42;3.10;;;1.63;;
3815;SDS011;1923;48.154;11.536;2022-09-27T05:33:11;6.93;;;1.60;;
3815;SDS011;1923;48.154;11.536;2022-09-27T05:35:40;2.27;;;1.63;;
3815;SDS011;1923;48.154;11.536;2022-09-27T05:38:12;1.43;;;1.03;;
3815;SDS011;1923;48.154;11.536;2022-09-27T05:40:40;1.33;;;1.10;;
3815;SDS011;1923;48.154;11.536;2022-09-27T05:43:09;1.10;;;1.00;;
3815;SDS011;1923;48.154;11.536;2022-09-27T05:45:37;2.40;;;1.40;;
3815;SDS011;1923;48.154;11.536;2022-09-27T05:48:06;1.53;;;1.20;;
3815;SDS011;1923;48.154;11.536;2022-09-27T05:50:34;1.80;;;1.17;;
3815;SDS011;1923;48.154;11.536;2022-09-27T05:53:04;1.57;;;1.30;;
3815;SDS011;1923;48.154;11.536;2022-09-27T05:55:32;0.93;;;0.87;;
3815;SDS011;1923;48.154;11.536;2022-09-27T05:58:01;1.40;;;1.20;;
3815;SDS011;1923;48.154;11.536;2022-09-27T06:00:30;1.20;;;1.00;;
3815;SDS011;1923;48.154;11.536;2022-09-27T06:02:59;1.33;;;1.10;;
3815;SDS011;1923;48.154;11.536;2022-09-27T06:05:30;1.00;;;0.90;;
3815;SDS011;1923;48.154;11.536;2022-09-27T06:08:02;1.00;;;0.90;;
3815;SDS011;1923;48.154;11.536;2022-09-27T06:10:33;4.23;;;0.93;;
3815;SDS011;1923;48.154;11.536;2022-09-27T06:13:02;1.70;;;0.90;;
3815;SDS011;1923;48.154;11.536;2022-09-27T06:15:31;1.10;;;1.00;;
3815;SDS011;1923;48.154;11.536;2022-09-27T06:18:01;1.57;;;0.90;;
3815;SDS011;1923;48.154;11.536;2022-09-27T06:20:31;1.67;;;1.07;;
3815;SDS011;1923;48.154;11.536;2022-09-27T06:23:07;0.87;;;0.87;;
3815;SDS011;1923;48.154;11.536;2022-09-27T06:25:37;1.33;;;1.20;;
3815;SDS011;1923;48.154;11.536;2022-09-27T06:28:06;1.47;;;1.10;;
3815;SDS011;1923;48.154;11.536;2022-09-27T06:30:36;1.00;;;0.80;;
3815;SDS011;1923;48.154;11.536;2022-09-27T06:33:06;1.20;;;1.00;;
3815;SDS011;1923;48.154;11.536;2022-09-27T06:35:36;1.53;;;0.83;;
3815;SDS011;1923;48.154;11.536;2022-09-27T06:38:05;2.07;;;1.70;;
3815;SDS011;1923;48.154;11.536;2022-09-27T06:40:36;1.40;;;1.13;;
3815;SDS011;1923;48.154;11.536;2022-09-27T06:43:05;2.10;;;1.00;;
3815;SDS011;1923;48.154;11.536;2022-09-27T06:45:35;1.30;;;0.97;;
3815;SDS011;1923;48.154;11.536;2022-09-27T06:48:04;1.70;;;1.23;;
3815;SDS011;1923;48.154;11.536;2022-09-27T06:50:34;1.30;;;1.07;;
3815;SDS011;1923;48.154;11.536;2022-09-27T06:53:04;1.13;;;1.00;;
3815;SDS011;1923;48.154;11.536;2022-09-27T06:55:34;2.27;;;1.30;;
3815;SDS011;1923;48.154;11.536;2022-09-27T06:58:03;1.13;;;0.97;;
3815;SDS011;1923;48.154;11.536;2022-09-27T07:00:49;1.00;;;0.90;;
3815;SDS011;1923;48.154;11.536;2022-09-27T07:03:18;1.83;;;1.00;;
3815;SDS011;1923;48.154;11.536;2022-09-27T07:05:54;1.63;;;0.70;;
3815;SDS011;1923;48.154;11.536;2022-09-27T07:08:24;1.57;;;1.10;;
3815;SDS011;1923;48.154;11.536;2022-09-27T07:10:55;1.43;;;0.97;;
3815;SDS011;1923;48.154;11.536;2022-09-27T07:13:28;1.40;;;0.80;;
3815;SDS011;1923;48.154;11.536;2022-09-27T07:15:59;1.13;;;0.90;;
3815;SDS011;1923;48.154;11.536;2022-09-27T07:18:28;3.20;;;0.97;;
3815;SDS011;1923;48.154;11.536;2022-09-27T07:20:58;1.73;;;1.33;;
3815;SDS011;1923;48.154;11.536;2022-09-27T07:23:26;1.30;;;0.80;;
3815;SDS011;1923;48.154;11.536;2022-09-27T07:25:55;1.07;;;0.80;;
3815;SDS011;1923;48.154;11.536;2022-09-27T07:28:29;2.57;;;0.90;;
3815;SDS011;1923;48.154;11.536;2022-09-27T07:30:57;1.47;;;1.00;;
3815;SDS011;1923;48.154;11.536;2022-09-27T07:33:27;3.27;;;0.90;;
3815;SDS011;1923;48.154;11.536;2022-09-27T07:35:55;3.23;;;1.20;;
3815;SDS011;1923;48.154;11.536;2022-09-27T07:38:23;3.13;;;0.90;;
3815;SDS011;1923;48.154;11.536;2022-09-27T07:40:52;2.23;;;1.40;;
3815;SDS011;1923;48.154;11.536;2022-09-27T07:43:21;1.70;;;1.17;;
3815;SDS011;1923;48.154;11.536;2022-09-27T07:45:49;2.17;;;1.30;;
3815;SDS011;1923;48.154;11.536;2022-09-27T07:48:17;1.50;;;1.27;;
3815;SDS011;1923;48.154;11.536;2022-09-27T07:50:45;1.10;;;0.70;;
3815;SDS011;1923;48.154;11.536;2022-09-27T07:53:13;1.50;;;0.55;;
3815;SDS011;1923;48.154;11.536;2022-09-27T07:55:41;1.60;;;0.80;;
3815;SDS011;1923;48.154;11.536;2022-09-27T07:58:10;2.77;;;0.83;;
3815;SDS011;1923;48.154;11.536;2022-09-27T08:00:40;1.30;;;0.53;;
3815;SDS011;1923;48.154;11.536;2022-09-27T08:03:09;0.77;;;0.70;;
3815;SDS011;1923;48.154;11.536;2022-09-27T08:05:41;1.10;;;0.60;;
3815;SDS011;1923;48.154;11.536;2022-09-27T08:08:10;2.00;;;0.40;;
3815;SDS011;1923;48.154;11.536;2022-09-27T08:10:38;0.70;;;0.40;;
3815;SDS011;1923;48.154;11.536;2022-09-27T08:13:10;2.93;;;0.80;;
3815;SDS011;1923;48.154;11.536;2022-09-27T08:15:39;1.73;;;0.87;;
3815;SDS011;1923;48.154;11.536;2022-09-27T08:18:07;2.40;;;0.90;;
3815;SDS011;1923;48.154;11.536;2022-09-27T08:20:36;0.90;;;0.57;;
3815;SDS011;1923;48.154;11.536;2022-09-27T08:23:06;1.07;;;0.50;;
3815;SDS011;1923;48.154;11.536;2022-09-27T08:25:34;0.60;;;0.47;;
3815;SDS011;1923;48.154;11.536;2022-09-27T08:28:02;3.07;;;2.87;;
3815;SDS011;1923;48.154;11.536;2022-09-27T08:30:31;0.80;;;0.70;;
3815;SDS011;1923;48.154;11.536;2022-09-27T08:33:00;1.57;;;1.10;;
3815;SDS011;1923;48.154;11.536;2022-09-27T08:35:29;0.80;;;0.70;;
3815;SDS011;1923;48.154;11.536;2022-09-27T08:38:00;1.10;;;0.60;;
3815;SDS011;1923;48.154;11.536;2022-09-27T08:40:35;1.30;;;1.00;;
3815;SDS011;1923;48.154;11.536;2022-09-27T08:43:14;1.03;;;0.70;;
3815;SDS011;1923;48.154;11.536;2022-09-27T08:45:54;0.88;;;0.68;;
3815;SDS011;1923;48.154;11.536;2022-09-27T08:48:38;2.07;;;1.03;;
3815;SDS011;1923;48.154;11.536;2022-09-27T08:51:09;1.00;;;0.83;;
3815;SDS011;1923;48.154;11.536;2022-09-27T08:53:40;1.00;;;0.80;;
3815;SDS011;1923;48.154;11.536;2022-09-27T08:56:13;1.33;;;0.73;;
3815;SDS011;1923;48.154;11.536;2022-09-27T08:58:47;0.80;;;0.50;;
3815;SDS011;1923;48.154;11.536;2022-09-27T09:01:18;0.90;;;0.67;;
3815;SDS011;1923;48.154;11.536;2022-09-27T09:03:56;1.67;;;0.90;;
3815;SDS011;1923;48.154;11.536;2022-09-27T09:06:27;0.70;;;0.60;;
3815;SDS011;1923;48.154;11.536;2022-09-27T09:09:02;0.70;;;0.70;;
3815;SDS011;1923;48.154;11.536;2022-09-27T09:11:43;0.70;;;0.60;;
3815;SDS011;1923;48.154;11.536;2022-09-27T09:14:43;1.20;;;0.70;;
3815;SDS011;1923;48.154;11.536;2022-09-27T09:17:23;0.93;;;0.67;;
3815;SDS011;1923;48.154;11.536;2022-09-27T09:20:11;1.17;;;0.67;;
3815;SDS011;1923;48.154;11.536;2022-09-27T09:25:50;1.43;;;0.80;;
3815;SDS011;1923;48.154;11.536;2022-09-27T09:28:28;1.60;;;0.73;;
3815;SDS011;1923;48.154;11.536;2022-09-27T09:31:13;1.10;;;0.60;;
3815;SDS011;1923;48.154;11.536;2022-09-27T09:33:51;1.13;;;0.57;;
3815;SDS011;1923;48.154;11.536;2022-09-27T09:36:26;0.93;;;0.80;;
3815;SDS011;1923;48.154;11.536;2022-09-27T09:38:58;0.90;;;0.60;;
3815;SDS011;1923;48.154;11.536;2022-09-27T09:41:32;3.33;;;0.97;;
3815;SDS011;1923;48.154;11.536;2022-09-27T09:44:06;0.97;;;0.60;;
3815;SDS011;1923;48.154;11.536;2022-09-27T09:46:54;1.93;;;0.60;;
3815;SDS011;1923;48.154;11.536;2022-09-27T09:49:26;1.23;;;0.93;;
3815;SDS011;1923;48.154;11.536;2022-09-27T09:51:59;2.10;;;0.87;;
3815;SDS011;1923;48.154;11.536;2022-09-27T09:54:35;1.43;;;0.97;;
3815;SDS011;1923;48.154;11.536;2022-09-27T09:57:09;0.63;;;0.50;;
3815;SDS011;1923;48.154;11.536;2022-09-27T09:59:42;0.70;;;0.70;;
3815;SDS011;1923;48.154;11.536;2022-09-27T10:02:18;0.83;;;0.80;;
3815;SDS011;1923;48.154;11.536;2022-09-27T10:04:54;0.73;;;0.47;;
3815;SDS011;1923;48.154;11.536;2022-09-27T10:07:24;0.90;;;0.50;;
3815;SDS011;1923;48.154;11.536;2022-09-27T10:09:54;0.80;;;0.53;;
3815;SDS011;1923;48.154;11.536;2022-09-27T10:12:26;0.93;;;0.60;;
3815;SDS011;1923;48.154;11.536;2022-09-27T10:14:56;1.00;;;0.70;;
3815;SDS011;1923;48.154;11.536;2022-09-27T10:17:28;0.90;;;0.70;;
3815;SDS011;1923;48.154;11.536;2022-09-27T10:20:04;1.20;;;0.70;;
3815;SDS011;1923;48.154;11.536;2022-09-27T10:22:35;1.00;;;0.87;;
3815;SDS011;1923;48.154;11.536;2022-09-27T10:25:07;1.60;;;0.80;;
3815;SDS011;1923;48.154;11.536;2022-09-27T10:27:40;2.20;;;0.70;;
3815;SDS011;1923;48.154;11.536;2022-09-27T10:30:20;1.17;;;0.70;;
3815;SDS011;1923;48.154;11.536;2022-09-27T10:32:50;1.63;;;0.77;;
3815;SDS011;1923;48.154;11.536;2022-09-27T10:35:31;1.13;;;0.80;;
3815;SDS011;1923;48.154;11.536;2022-09-27T10:38:16;1.00;;;0.83;;
3815;SDS011;1923;48.154;11.536;2022-09-27T10:40:51;1.37;;;0.80;;
3815;SDS011;1923;48.154;11.536;2022-09-27T10:43:25;1.33;;;0.73;;
3815;SDS011;1923;48.154;11.536;2022-09-27T10:46:03;1.83;;;0.70;;
3815;SDS011;1923;48.154;11.536;2022-09-27T10:48:36;2.50;;;1.30;;
3815;SDS011;1923;48.154;11.536;2022-09-27T10:51:17;2.43;;;0.83;;
3815;SDS011;1923;48.154;11.536;2022-09-27T10:53:52;1.10;;;1.00;;
3815;SDS011;1923;48.154;11.536;2022-09-27T10:56:25;1.50;;;0.70;;
3815;SDS011;1923;48.154;11.536;2022-09-27T10:58:55;1.73;;;1.13;;
3815;SDS011;1923;48.154;11.536;2022-09-27T11:01:25;0.73;;;0.63;;
3815;SDS011;1923;48.154;11.536;2022-09-27T11:04:05;2.00;;;0.67;;
3815;SDS011;1923;48.154;11.536;2022-09-27T11:06:33;0.80;;;0.60;;
3815;SDS011;1923;48.154;11.536;2022-09-27T11:09:19;1.27;;;0.87;;
3815;SDS011;1923;48.154;11.536;2022-09-27T11:12:04;1.23;;;0.60;;
3815;SDS011;1923;48.154;11.536;2022-09-27T11:14:34;1.30;;;0.73;;
3815;SDS011;1923;48.154;11.536;2022-09-27T11:17:06;0.90;;;0.60;;
3815;SDS011;1923;48.154;11.536;2022-09-27T11:19:44;1.30;;;0.80;;
3815;SDS011;1923;48.154;11.536;2022-09-27T11:25:19;0.87;;;0.57;;
3815;SDS011;1923;48.154;11.536;2022-09-27T11:27:58;1.30;;;0.70;;
3815;SDS011;1923;48.154;11.536;2022-09-27T11:30:33;1.73;;;0.97;;
3815;SDS011;1923;48.154;11.536;2022-09-27T11:33:15;1.10;;;0.87;;
3815;SDS011;1923;48.154;11.536;2022-09-27T11:35:59;0.80;;;0.50;;
3815;SDS011;1923;48.154;11.536;2022-09-27T11:38:32;1.43;;;0.83;;
3815;SDS011;1923;48.154;11.536;2022-09-27T11:41:24;1.30;;;0.60;;
3815;SDS011;1923;48.154;11.536;2022-09-27T11:47:04;1.77;;;0.80;;
3815;SDS011;1923;48.154;11.536;2022-09-27T11:49:52;1.47;;;0.60;;
3815;SDS011;1923;48.154;11.536;2022-09-27T11:52:32;1.98;;;0.80;;
3815;SDS011;1923;48.154;11.536;2022-09-27T11:55:14;1.43;;;1.00;;
3815;SDS011;1923;48.154;11.536;2022-09-27T11:57:51;1.37;;;0.97;;
3815;SDS011;1923;48.154;11.536;2022-09-27T12:00:30;1.17;;;0.90;;
3815;SDS011;1923;48.154;11.536;2022-09-27T12:03:31;1.47;;;0.60;;
3815;SDS011;1923;48.154;11.536;2022-09-27T12:06:14;1.13;;;0.80;;
3815;SDS011;1923;48.154;11.536;2022-09-27T12:08:50;2.53;;;1.00;;
3815;SDS011;1923;48.154;11.536;2022-09-27T12:11:28;3.00;;;1.67;;
3815;SDS011;1923;48.154;11.536;2022-09-27T12:14:05;1.07;;;0.97;;
3815;SDS011;1923;48.154;11.536;2022-09-27T12:16:38;1.45;;;0.90;;
3815;SDS011;1923;48.154;11.536;2022-09-27T12:19:10;1.65;;;0.70;;
3815;SDS011;1923;48.154;11.536;2022-09-27T12:21:44;1.57;;;1.03;;
3815;SDS011;1923;48.154;11.536;2022-09-27T12:24:14;1.83;;;1.50;;
3815;SDS011;1923;48.154;11.536;2022-09-27T12:26:47;1.20;;;0.90;;
3815;SDS011;1923;48.154;11.536;2022-09-27T12:29:21;1.50;;;1.20;;
3815;SDS011;1923;48.154;11.536;2022-09-27T12:31:55;1.20;;;1.10;;
3815;SDS011;1923;48.154;11.536;2022-09-27T12:34:29;2.30;;;1.30;;
3815;SDS011;1923;48.154;11.536;2022-09-27T12:37:04;1.83;;;1.13;;
3815;SDS011;1923;48.154;11.536;2022-09-27T12:39:41;1.37;;;0.83;;
3815;SDS011;1923;48.154;11.536;2022-09-27T12:42:15;1.10;;;0.80;;
3815;SDS011;1923;48.154;11.536;2022-09-27T12:44:48;4.53;;;2.67;;
3815;SDS011;1923;48.154;11.536;2022-09-27T12:47:28;1.53;;;0.97;;
3815;SDS011;1923;48.154;11.536;2022-09-27T12:50:08;1.40;;;1.13;;
3815;SDS011;1923;48.154;11.536;2022-09-27T12:52:42;1.43;;;0.83;;
3815;SDS011;1923;48.154;11.536;2022-09-27T12:55:26;1.03;;;0.90;;
3815;SDS011;1923;48.154;11.536;2022-09-27T12:58:10;2.70;;;1.00;;
3815;SDS011;1923;48.154;11.536;2022-09-27T13:01:03;1.57;;;1.13;;
3815;SDS011;1923;48.154;11.536;2022-09-27T13:03:47;3.60;;;1.60;;
3815;SDS011;1923;48.154;11.536;2022-09-27T13:06:35;4.43;;;2.30;;
3815;SDS011;1923;48.154;11.536;2022-09-27T13:09:19;1.87;;;1.23;;
3815;SDS011;1923;48.154;11.536;2022-09-27T13:12:07;2.50;;;1.40;;
3815;SDS011;1923;48.154;11.536;2022-09-27T13:14:41;1.30;;;1.20;;
3815;SDS011;1923;48.154;11.536;2022-09-27T13:17:33;1.23;;;1.13;;
3815;SDS011;1923;48.154;11.536;2022-09-27T13:26:44;0.90;;;0.60;;
3815;SDS011;1923;48.154;11.536;2022-09-27T13:29:21;1.20;;;1.10;;
3815;SDS011;1923;48.154;11.536;2022-09-27T13:32:10;0.83;;;0.80;;
3815;SDS011;1923;48.154;11.536;2022-09-27T13:34:51;0.70;;;0.40;;
3815;SDS011;1923;48.154;11.536;2022-09-27T13:37:33;4.70;;;1.00;;
3815;SDS011;1923;48.154;11.536;2022-09-27T13:43:06;1.27;;;0.60;;
3815;SDS011;1923;48.154;11.536;2022-09-27T13:45:55;1.33;;;0.87;;
3815;SDS011;1923;48.154;11.536;2022-09-27T13:48:26;1.30;;;0.73;;
3815;SDS011;1923;48.154;11.536;2022-09-27T13:51:02;2.03;;;0.80;;
3815;SDS011;1923;48.154;11.536;2022-09-27T13:53:34;0.97;;;0.80;;
3815;SDS011;1923;48.154;11.536;2022-09-27T13:56:05;2.00;;;0.80;;
3815;SDS011;1923;48.154;11.536;2022-09-27T13:59:25;0.90;;;0.50;;
3815;SDS011;1923;48.154;11.536;2022-09-27T14:02:01;1.10;;;0.73;;
3815;SDS011;1923;48.154;11.536;2022-09-27T14:04:40;0.90;;;0.70;;
3815;SDS011;1923;48.154;11.536;2022-09-27T14:07:12;1.47;;;0.90;;
3815;SDS011;1923;48.154;11.536;2022-09-27T14:09:43;0.77;;;0.60;;
3815;SDS011;1923;48.154;11.536;2022-09-27T14:12:15;1.55;;;0.80;;
3815;SDS011;1923;48.154;11.536;2022-09-27T14:14:48;2.60;;;1.00;;
3815;SDS011;1923;48.154;11.536;2022-09-27T14:17:17;0.80;;;0.80;;
3815;SDS011;1923;48.154;11.536;2022-09-27T14:19:46;2.07;;;0.80;;
3815;SDS011;1923;48.154;11.536;2022-09-27T14:22:16;1.20;;;0.80;;
3815;SDS011;1923;48.154;11.536;2022-09-27T14:24:46;0.80;;;0.60;;
3815;SDS011;1923;48.154;11.536;2022-09-27T14:27:16;1.43;;;0.77;;
3815;SDS011;1923;48.154;11.536;2022-09-27T14:29:48;0.93;;;0.70;;
3815;SDS011;1923;48.154;11.536;2022-09-27T14:32:19;1.47;;;0.87;;
3815;SDS011;1923;48.154;11.536;2022-09-27T14:35:01;1.50;;;0.53;;
3815;SDS011;1923;48.154;11.536;2022-09-27T14:37:53;0.60;;;0.50;;
3815;SDS011;1923;48.154;11.536;2022-09-27T14:40:20;1.50;;;1.10;;
3815;SDS011;1923;48.154;11.536;2022-09-27T14:42:51;0.60;;;0.50;;
3815;SDS011;1923;48.154;11.536;2022-09-27T14:45:23;0.80;;;0.70;;
3815;SDS011;1923;48.154;11.536;2022-09-27T14:47:56;1.30;;;1.00;;
3815;SDS011;1923;48.154;11.536;2022-09-27T14:50:26;0.80;;;0.70;;
3815;SDS011;1923;48.154;11.536;2022-09-27T14:52:55;1.97;;;0.97;;
3815;SDS011;1923;48.154;11.536;2022-09-27T14:55:26;2.10;;;0.70;;
3815;SDS011;1923;48.154;11.536;2022-09-27T14:57:57;1.90;;;1.37;;
3815;SDS011;1923;48.154;11.536;2022-09-27T15:00:28;1.80;;;0.83;;
3815;SDS011;1923;48.154;11.536;2022-09-27T15:02:58;1.30;;;0.73;;
3815;SDS011;1923;48.154;11.536;2022-09-27T15:05:29;0.80;;;0.60;;
3815;SDS011;1923;48.154;11.536;2022-09-27T15:07:58;0.87;;;0.70;;
3815;SDS011;1923;48.154;11.536;2022-09-27T15:10:33;1.33;;;0.60;;
3815;SDS011;1923;48.154;11.536;2022-09-27T15:13:02;0.60;;;0.50;;
3815;SDS011;1923;48.154;11.536;2022-09-27T15:15:34;0.90;;;0.73;;
3815;SDS011;1923;48.154;11.536;2022-09-27T15:21:06;0.67;;;0.67;;
3815;SDS011;1923;48.154;11.536;2022-09-27T15:23:35;1.40;;;0.87;;
3815;SDS011;1923;48.154;11.536;2022-09-27T15:26:07;1.07;;;0.70;;
3815;SDS011;1923;48.154;11.536;2022-09-27T15:28:40;1.13;;;1.03;;
3815;SDS011;1923;48.154;11.536;2022-09-27T15:31:11;1.70;;;1.13;;
3815;SDS011;1923;48.154;11.536;2022-09-27T15:33:40;1.17;;;0.90;;
3815;SDS011;1923;48.154;11.536;2022-09-27T15:36:09;1.00;;;0.90;;
3815;SDS011;1923;48.154;11.536;2022-09-27T15:38:40;1.63;;;1.03;;
3815;SDS011;1923;48.154;11.536;2022-09-27T15:41:12;0.87;;;0.83;;
3815;SDS011;1923;48.154;11.536;2022-09-27T15:43:42;1.40;;;0.77;;
3815;SDS011;1923;48.154;11.536;2022-09-27T15:46:26;1.93;;;1.23;;
3815;SDS011;1923;48.154;11.536;2022-09-27T15:49:21;0.73;;;0.73;;
3815;SDS011;1923;48.154;11.536;2022-09-27T15:51:56;1.90;;;0.90;;
3815;SDS011;1923;48.154;11.536;2022-09-27T15:54:26;2.33;;;1.30;;
3815;SDS011;1923;48.154;11.536;2022-09-27T15:56:56;1.37;;;0.90;;
3815;SDS011;1923;48.154;11.536;2022-09-27T15:59:30;0.80;;;0.80;;
3815;SDS011;1923;48.154;11.536;2022-09-27T16:02:02;1.20;;;0.70;;